Pagrindinis puslapis
METAR-TAF:

METAR-TAF

Oro uostai :

Angado oro uostas

Udžda, Marokas

platuma: 34-47N, ilguma: 001-56W, Aukštis: 468 m

Dabartinis oras

Ataskaita buvo paskelbta 13 minutes, ne 15:00 UTC
Vėjas 16 kt iš Šiaurės
Temperatūra 21°C
Drėgmė 49%
Slėgis 1021 hPa
Matomumas 10 km arba daugiau
Mažai debesys ne aukštis 3300 ft

METAR: GMFO 141500Z 36016KT 9999 FEW033 21/10 Q1021 NOSIG

Laikas: 16:13 (15:13 UTC)

Prognozė

Ataskaita buvo paskelbta 4 valandos ir 13 minutes, ne 11:00 UTC
Prognozė galioja nuo 14 metu 12 UTC su 15 metu 18 UTC
Vėjas 10 kt iš Šiaurės Vakarų
Matomumas 10 km arba daugiau
Mažai debesys ne aukštis 2500 ft

TAF: GMFO 141100Z 1412/1518 31010KT 9999 FEW025

Orai ataskaitas ir orų prognozės (METAR, TAF).

turimą stotys yra geltonos ir raudonos taškus žemėlapyje.

Perkelti pele per norėdami pamatyti stoties vardą.

Tada spustelėkite, norėdami matyti oro stebėjimo ir prognozės.

Norėdami pakeisti žemėlapį: spustelėkite ant žalios mygtukų su juodo kryžiaus žemyn,; žalią mygtuką su brūkšneliu, jei norite nutolinti; arba žalių rodyklių gretimoms žemėlapius.


METAR-TAF: